sensor_id;sensor_type;location;lat;lon;timestamp;P1;durP1;ratioP1;P2;durP2;ratioP2
8982;SDS011;20979;59.850;10.660;2024-02-04T00:00:04;1.23;;;0.80;;
8982;SDS011;20979;59.850;10.660;2024-02-04T00:02:32;1.17;;;0.80;;
8982;SDS011;20979;59.850;10.660;2024-02-04T00:05:01;1.30;;;0.60;;
8982;SDS011;20979;59.850;10.660;2024-02-04T00:07:28;3.07;;;0.73;;
8982;SDS011;20979;59.850;10.660;2024-02-04T00:09:56;0.73;;;0.43;;
8982;SDS011;20979;59.850;10.660;2024-02-04T00:12:24;0.73;;;0.60;;
8982;SDS011;20979;59.850;10.660;2024-02-04T00:14:52;1.17;;;0.57;;
8982;SDS011;20979;59.850;10.660;2024-02-04T00:17:19;1.10;;;0.57;;
8982;SDS011;20979;59.850;10.660;2024-02-04T00:19:47;1.03;;;0.70;;
8982;SDS011;20979;59.850;10.660;2024-02-04T00:22:15;2.03;;;0.93;;
8982;SDS011;20979;59.850;10.660;2024-02-04T00:24:45;1.33;;;0.83;;
8982;SDS011;20979;59.850;10.660;2024-02-04T00:27:12;1.63;;;0.93;;
8982;SDS011;20979;59.850;10.660;2024-02-04T00:29:40;1.97;;;1.20;;
8982;SDS011;20979;59.850;10.660;2024-02-04T00:32:07;3.43;;;1.27;;
8982;SDS011;20979;59.850;10.660;2024-02-04T00:34:35;3.77;;;1.00;;
8982;SDS011;20979;59.850;10.660;2024-02-04T00:37:02;1.80;;;1.20;;
8982;SDS011;20979;59.850;10.660;2024-02-04T00:39:31;1.70;;;0.60;;
8982;SDS011;20979;59.850;10.660;2024-02-04T00:41:59;2.53;;;1.30;;
8982;SDS011;20979;59.850;10.660;2024-02-04T00:44:26;1.93;;;0.90;;
8982;SDS011;20979;59.850;10.660;2024-02-04T00:46:54;2.63;;;1.17;;
8982;SDS011;20979;59.850;10.660;2024-02-04T00:49:21;1.17;;;0.80;;
8982;SDS011;20979;59.850;10.660;2024-02-04T00:51:51;3.17;;;0.77;;
8982;SDS011;20979;59.850;10.660;2024-02-04T00:54:18;0.73;;;0.60;;
8982;SDS011;20979;59.850;10.660;2024-02-04T00:56:47;1.63;;;0.63;;
8982;SDS011;20979;59.850;10.660;2024-02-04T00:59:14;0.93;;;0.67;;
8982;SDS011;20979;59.850;10.660;2024-02-04T01:01:42;1.40;;;0.60;;
8982;SDS011;20979;59.850;10.660;2024-02-04T01:04:09;1.50;;;0.97;;
8982;SDS011;20979;59.850;10.660;2024-02-04T01:06:37;3.30;;;0.80;;
8982;SDS011;20979;59.850;10.660;2024-02-04T01:09:04;0.87;;;0.60;;
8982;SDS011;20979;59.850;10.660;2024-02-04T01:11:33;2.50;;;0.80;;
8982;SDS011;20979;59.850;10.660;2024-02-04T01:14:01;1.40;;;0.70;;
8982;SDS011;20979;59.850;10.660;2024-02-04T01:16:29;0.63;;;0.50;;
8982;SDS011;20979;59.850;10.660;2024-02-04T01:18:56;3.70;;;1.00;;
8982;SDS011;20979;59.850;10.660;2024-02-04T01:21:24;1.17;;;0.70;;
8982;SDS011;20979;59.850;10.660;2024-02-04T01:23:53;1.00;;;0.70;;
8982;SDS011;20979;59.850;10.660;2024-02-04T01:26:20;1.97;;;0.67;;
8982;SDS011;20979;59.850;10.660;2024-02-04T01:28:49;1.53;;;0.80;;
8982;SDS011;20979;59.850;10.660;2024-02-04T01:31:18;2.27;;;0.70;;
8982;SDS011;20979;59.850;10.660;2024-02-04T01:33:45;0.93;;;0.80;;
8982;SDS011;20979;59.850;10.660;2024-02-04T01:36:13;3.77;;;0.90;;
8982;SDS011;20979;59.850;10.660;2024-02-04T01:38:40;1.43;;;0.60;;
8982;SDS011;20979;59.850;10.660;2024-02-04T01:41:08;1.90;;;0.67;;
8982;SDS011;20979;59.850;10.660;2024-02-04T01:43:35;2.70;;;0.90;;
8982;SDS011;20979;59.850;10.660;2024-02-04T01:46:02;2.93;;;0.80;;
8982;SDS011;20979;59.850;10.660;2024-02-04T01:48:31;1.43;;;0.77;;
8982;SDS011;20979;59.850;10.660;2024-02-04T01:50:59;2.27;;;0.80;;
8982;SDS011;20979;59.850;10.660;2024-02-04T01:53:27;1.10;;;0.60;;
8982;SDS011;20979;59.850;10.660;2024-02-04T01:55:54;0.90;;;0.63;;
8982;SDS011;20979;59.850;10.660;2024-02-04T01:58:22;0.50;;;0.43;;
8982;SDS011;20979;59.850;10.660;2024-02-04T02:00:50;1.40;;;0.80;;
8982;SDS011;20979;59.850;10.660;2024-02-04T02:03:18;1.13;;;0.50;;
8982;SDS011;20979;59.850;10.660;2024-02-04T02:05:48;3.63;;;0.70;;
8982;SDS011;20979;59.850;10.660;2024-02-04T02:08:15;2.10;;;0.60;;
8982;SDS011;20979;59.850;10.660;2024-02-04T02:10:43;2.43;;;0.57;;
8982;SDS011;20979;59.850;10.660;2024-02-04T02:13:14;0.90;;;0.60;;
8982;SDS011;20979;59.850;10.660;2024-02-04T02:15:44;1.53;;;0.40;;
8982;SDS011;20979;59.850;10.660;2024-02-04T02:18:14;0.87;;;0.60;;
8982;SDS011;20979;59.850;10.660;2024-02-04T02:20:46;1.27;;;0.70;;
8982;SDS011;20979;59.850;10.660;2024-02-04T02:23:21;1.03;;;0.73;;
8982;SDS011;20979;59.850;10.660;2024-02-04T02:25:51;1.43;;;0.57;;
8982;SDS011;20979;59.850;10.660;2024-02-04T02:28:18;1.53;;;0.53;;
8982;SDS011;20979;59.850;10.660;2024-02-04T02:30:46;0.77;;;0.57;;
8982;SDS011;20979;59.850;10.660;2024-02-04T02:33:13;1.77;;;0.60;;
8982;SDS011;20979;59.850;10.660;2024-02-04T02:35:41;1.60;;;0.40;;
8982;SDS011;20979;59.850;10.660;2024-02-04T02:38:11;0.53;;;0.40;;
8982;SDS011;20979;59.850;10.660;2024-02-04T02:40:43;0.80;;;0.50;;
8982;SDS011;20979;59.850;10.660;2024-02-04T02:43:13;0.37;;;0.30;;
8982;SDS011;20979;59.850;10.660;2024-02-04T02:45:41;1.03;;;0.37;;
8982;SDS011;20979;59.850;10.660;2024-02-04T02:48:09;0.93;;;0.50;;
8982;SDS011;20979;59.850;10.660;2024-02-04T02:50:37;1.17;;;0.67;;
8982;SDS011;20979;59.850;10.660;2024-02-04T02:53:05;1.73;;;0.63;;
8982;SDS011;20979;59.850;10.660;2024-02-04T02:55:32;1.17;;;0.40;;
8982;SDS011;20979;59.850;10.660;2024-02-04T02:58:00;0.57;;;0.50;;
8982;SDS011;20979;59.850;10.660;2024-02-04T03:00:28;1.30;;;0.50;;
8982;SDS011;20979;59.850;10.660;2024-02-04T03:02:56;0.73;;;0.53;;
8982;SDS011;20979;59.850;10.660;2024-02-04T03:05:23;1.07;;;0.40;;
8982;SDS011;20979;59.850;10.660;2024-02-04T03:07:51;1.37;;;0.53;;
8982;SDS011;20979;59.850;10.660;2024-02-04T03:10:18;0.97;;;0.50;;
8982;SDS011;20979;59.850;10.660;2024-02-04T03:12:46;2.17;;;0.83;;
8982;SDS011;20979;59.850;10.660;2024-02-04T03:15:13;0.43;;;0.40;;
8982;SDS011;20979;59.850;10.660;2024-02-04T03:17:43;0.60;;;0.30;;
8982;SDS011;20979;59.850;10.660;2024-02-04T03:20:11;0.60;;;0.40;;
8982;SDS011;20979;59.850;10.660;2024-02-04T03:22:38;0.40;;;0.40;;
8982;SDS011;20979;59.850;10.660;2024-02-04T03:25:06;1.30;;;0.40;;
8982;SDS011;20979;59.850;10.660;2024-02-04T03:27:33;0.60;;;0.57;;
8982;SDS011;20979;59.850;10.660;2024-02-04T03:30:01;0.30;;;0.30;;
8982;SDS011;20979;59.850;10.660;2024-02-04T03:32:28;1.23;;;0.60;;
8982;SDS011;20979;59.850;10.660;2024-02-04T03:35:00;1.00;;;0.40;;
8982;SDS011;20979;59.850;10.660;2024-02-04T03:37:28;0.80;;;0.40;;
8982;SDS011;20979;59.850;10.660;2024-02-04T03:39:55;0.40;;;0.40;;
8982;SDS011;20979;59.850;10.660;2024-02-04T03:42:23;0.83;;;0.43;;
8982;SDS011;20979;59.850;10.660;2024-02-04T03:44:50;0.57;;;0.43;;
8982;SDS011;20979;59.850;10.660;2024-02-04T03:47:18;2.13;;;0.50;;
8982;SDS011;20979;59.850;10.660;2024-02-04T03:49:45;0.40;;;0.30;;
8982;SDS011;20979;59.850;10.660;2024-02-04T03:52:14;0.97;;;0.50;;
8982;SDS011;20979;59.850;10.660;2024-02-04T03:54:41;0.40;;;0.40;;
8982;SDS011;20979;59.850;10.660;2024-02-04T03:57:09;0.70;;;0.53;;
8982;SDS011;20979;59.850;10.660;2024-02-04T03:59:36;1.10;;;0.50;;
8982;SDS011;20979;59.850;10.660;2024-02-04T04:02:04;0.30;;;0.30;;
8982;SDS011;20979;59.850;10.660;2024-02-04T04:04:31;0.30;;;0.30;;
8982;SDS011;20979;59.850;10.660;2024-02-04T04:06:59;1.13;;;0.50;;
8982;SDS011;20979;59.850;10.660;2024-02-04T04:09:28;2.03;;;0.50;;
8982;SDS011;20979;59.850;10.660;2024-02-04T04:11:55;0.30;;;0.30;;
8982;SDS011;20979;59.850;10.660;2024-02-04T04:14:22;0.20;;;0.20;;
8982;SDS011;20979;59.850;10.660;2024-02-04T04:16:50;0.80;;;0.40;;
8982;SDS011;20979;59.850;10.660;2024-02-04T04:19:17;1.13;;;0.40;;
8982;SDS011;20979;59.850;10.660;2024-02-04T04:21:45;1.20;;;0.40;;
8982;SDS011;20979;59.850;10.660;2024-02-04T04:24:12;0.70;;;0.30;;
8982;SDS011;20979;59.850;10.660;2024-02-04T04:26:42;0.93;;;0.53;;
8982;SDS011;20979;59.850;10.660;2024-02-04T04:29:09;0.37;;;0.37;;
8982;SDS011;20979;59.850;10.660;2024-02-04T04:31:37;0.50;;;0.30;;
8982;SDS011;20979;59.850;10.660;2024-02-04T04:34:05;0.90;;;0.27;;
8982;SDS011;20979;59.850;10.660;2024-02-04T04:36:32;1.60;;;0.47;;
8982;SDS011;20979;59.850;10.660;2024-02-04T04:39:00;0.50;;;0.30;;
8982;SDS011;20979;59.850;10.660;2024-02-04T04:41:28;0.37;;;0.37;;
8982;SDS011;20979;59.850;10.660;2024-02-04T04:43:56;0.30;;;0.23;;
8982;SDS011;20979;59.850;10.660;2024-02-04T04:46:24;0.50;;;0.50;;
8982;SDS011;20979;59.850;10.660;2024-02-04T04:48:51;1.33;;;0.50;;
8982;SDS011;20979;59.850;10.660;2024-02-04T04:51:23;0.57;;;0.50;;
8982;SDS011;20979;59.850;10.660;2024-02-04T04:53:50;0.50;;;0.40;;
8982;SDS011;20979;59.850;10.660;2024-02-04T04:56:17;0.57;;;0.40;;
8982;SDS011;20979;59.850;10.660;2024-02-04T04:58:45;0.30;;;0.30;;
8982;SDS011;20979;59.850;10.660;2024-02-04T05:01:14;1.13;;;0.50;;
8982;SDS011;20979;59.850;10.660;2024-02-04T05:03:41;0.60;;;0.60;;
8982;SDS011;20979;59.850;10.660;2024-02-04T05:06:09;0.20;;;0.20;;
8982;SDS011;20979;59.850;10.660;2024-02-04T05:08:36;1.20;;;0.40;;
8982;SDS011;20979;59.850;10.660;2024-02-04T05:11:04;0.53;;;0.30;;
8982;SDS011;20979;59.850;10.660;2024-02-04T05:13:31;0.67;;;0.20;;
8982;SDS011;20979;59.850;10.660;2024-02-04T05:15:58;0.30;;;0.30;;
8982;SDS011;20979;59.850;10.660;2024-02-04T05:18:27;0.37;;;0.30;;
8982;SDS011;20979;59.850;10.660;2024-02-04T05:20:55;1.50;;;0.40;;
8982;SDS011;20979;59.850;10.660;2024-02-04T05:23:22;0.20;;;0.20;;
8982;SDS011;20979;59.850;10.660;2024-02-04T05:25:50;0.53;;;0.30;;
8982;SDS011;20979;59.850;10.660;2024-02-04T05:28:17;0.60;;;0.27;;
8982;SDS011;20979;59.850;10.660;2024-02-04T05:30:45;1.23;;;0.57;;
8982;SDS011;20979;59.850;10.660;2024-02-04T05:33:13;0.53;;;0.40;;
8982;SDS011;20979;59.850;10.660;2024-02-04T05:35:42;0.73;;;0.43;;
8982;SDS011;20979;59.850;10.660;2024-02-04T05:38:10;0.90;;;0.40;;
8982;SDS011;20979;59.850;10.660;2024-02-04T05:40:37;0.77;;;0.40;;
8982;SDS011;20979;59.850;10.660;2024-02-04T05:43:05;1.03;;;0.60;;
8982;SDS011;20979;59.850;10.660;2024-02-04T05:45:35;0.60;;;0.43;;
8982;SDS011;20979;59.850;10.660;2024-02-04T05:48:06;0.50;;;0.40;;
8982;SDS011;20979;59.850;10.660;2024-02-04T05:50:33;0.40;;;0.40;;
8982;SDS011;20979;59.850;10.660;2024-02-04T05:53:02;0.87;;;0.43;;
8982;SDS011;20979;59.850;10.660;2024-02-04T05:55:30;0.47;;;0.43;;
8982;SDS011;20979;59.850;10.660;2024-02-04T05:57:57;0.27;;;0.23;;
8982;SDS011;20979;59.850;10.660;2024-02-04T06:00:25;0.30;;;0.30;;
8982;SDS011;20979;59.850;10.660;2024-02-04T06:02:53;0.30;;;0.30;;
8982;SDS011;20979;59.850;10.660;2024-02-04T06:05:20;1.20;;;0.33;;
8982;SDS011;20979;59.850;10.660;2024-02-04T06:07:48;0.43;;;0.40;;
8982;SDS011;20979;59.850;10.660;2024-02-04T06:10:17;0.37;;;0.30;;
8982;SDS011;20979;59.850;10.660;2024-02-04T06:12:44;1.43;;;0.40;;
8982;SDS011;20979;59.850;10.660;2024-02-04T06:15:12;0.63;;;0.33;;
8982;SDS011;20979;59.850;10.660;2024-02-04T06:17:40;0.40;;;0.40;;
8982;SDS011;20979;59.850;10.660;2024-02-04T06:20:08;0.40;;;0.40;;
8982;SDS011;20979;59.850;10.660;2024-02-04T06:22:36;0.63;;;0.47;;
8982;SDS011;20979;59.850;10.660;2024-02-04T06:25:03;0.53;;;0.40;;
8982;SDS011;20979;59.850;10.660;2024-02-04T06:27:32;0.53;;;0.37;;
8982;SDS011;20979;59.850;10.660;2024-02-04T06:30:00;0.60;;;0.50;;
8982;SDS011;20979;59.850;10.660;2024-02-04T06:32:27;0.63;;;0.40;;
8982;SDS011;20979;59.850;10.660;2024-02-04T06:34:55;0.30;;;0.20;;
8982;SDS011;20979;59.850;10.660;2024-02-04T06:37:23;0.40;;;0.40;;
8982;SDS011;20979;59.850;10.660;2024-02-04T06:39:51;1.80;;;0.40;;
8982;SDS011;20979;59.850;10.660;2024-02-04T06:42:19;0.37;;;0.37;;
8982;SDS011;20979;59.850;10.660;2024-02-04T06:44:48;0.43;;;0.40;;
8982;SDS011;20979;59.850;10.660;2024-02-04T06:47:15;0.43;;;0.40;;
8982;SDS011;20979;59.850;10.660;2024-02-04T06:49:43;0.87;;;0.80;;
8982;SDS011;20979;59.850;10.660;2024-02-04T06:52:11;0.70;;;0.60;;
8982;SDS011;20979;59.850;10.660;2024-02-04T06:54:38;1.70;;;1.17;;
8982;SDS011;20979;59.850;10.660;2024-02-04T06:57:06;1.50;;;1.40;;
8982;SDS011;20979;59.850;10.660;2024-02-04T06:59:34;1.27;;;0.90;;
8982;SDS011;20979;59.850;10.660;2024-02-04T07:02:03;0.93;;;0.60;;
8982;SDS011;20979;59.850;10.660;2024-02-04T07:04:31;0.73;;;0.40;;
8982;SDS011;20979;59.850;10.660;2024-02-04T07:07:00;0.60;;;0.40;;
8982;SDS011;20979;59.850;10.660;2024-02-04T07:09:27;1.13;;;0.60;;
8982;SDS011;20979;59.850;10.660;2024-02-04T07:11:58;1.23;;;0.40;;
8982;SDS011;20979;59.850;10.660;2024-02-04T07:14:25;0.40;;;0.40;;
8982;SDS011;20979;59.850;10.660;2024-02-04T07:16:53;1.90;;;0.40;;
8982;SDS011;20979;59.850;10.660;2024-02-04T07:19:21;0.47;;;0.43;;
8982;SDS011;20979;59.850;10.660;2024-02-04T07:21:51;1.50;;;0.70;;
8982;SDS011;20979;59.850;10.660;2024-02-04T07:24:18;0.60;;;0.60;;
8982;SDS011;20979;59.850;10.660;2024-02-04T07:26:51;0.50;;;0.50;;
8982;SDS011;20979;59.850;10.660;2024-02-04T07:29:18;0.83;;;0.80;;
8982;SDS011;20979;59.850;10.660;2024-02-04T07:31:46;0.67;;;0.50;;
8982;SDS011;20979;59.850;10.660;2024-02-04T07:34:13;1.63;;;0.83;;
8982;SDS011;20979;59.850;10.660;2024-02-04T07:36:42;1.73;;;1.00;;
8982;SDS011;20979;59.850;10.660;2024-02-04T07:39:10;1.33;;;0.67;;
8982;SDS011;20979;59.850;10.660;2024-02-04T07:41:38;1.27;;;0.70;;
8982;SDS011;20979;59.850;10.660;2024-02-04T07:44:05;0.60;;;0.60;;
8982;SDS011;20979;59.850;10.660;2024-02-04T07:46:32;0.60;;;0.60;;
8982;SDS011;20979;59.850;10.660;2024-02-04T07:49:00;1.23;;;0.60;;
8982;SDS011;20979;59.850;10.660;2024-02-04T07:51:27;0.93;;;0.70;;
8982;SDS011;20979;59.850;10.660;2024-02-04T07:53:56;0.70;;;0.70;;
8982;SDS011;20979;59.850;10.660;2024-02-04T07:56:24;0.70;;;0.70;;
8982;SDS011;20979;59.850;10.660;2024-02-04T07:58:51;0.80;;;0.80;;
8982;SDS011;20979;59.850;10.660;2024-02-04T08:01:19;2.63;;;0.80;;
8982;SDS011;20979;59.850;10.660;2024-02-04T08:03:46;1.33;;;1.03;;
8982;SDS011;20979;59.850;10.660;2024-02-04T08:06:13;2.33;;;1.10;;
8982;SDS011;20979;59.850;10.660;2024-02-04T08:08:41;2.20;;;1.47;;
8982;SDS011;20979;59.850;10.660;2024-02-04T08:11:11;1.53;;;1.43;;
8982;SDS011;20979;59.850;10.660;2024-02-04T08:13:43;2.10;;;1.20;;
8982;SDS011;20979;59.850;10.660;2024-02-04T08:16:10;3.07;;;2.60;;
8982;SDS011;20979;59.850;10.660;2024-02-04T08:18:38;3.50;;;2.90;;
8982;SDS011;20979;59.850;10.660;2024-02-04T08:21:05;1.70;;;1.60;;
8982;SDS011;20979;59.850;10.660;2024-02-04T08:23:33;1.97;;;1.53;;
8982;SDS011;20979;59.850;10.660;2024-02-04T08:26:00;2.33;;;1.50;;
8982;SDS011;20979;59.850;10.660;2024-02-04T08:28:30;2.97;;;1.80;;
8982;SDS011;20979;59.850;10.660;2024-02-04T08:30:57;3.33;;;2.50;;
8982;SDS011;20979;59.850;10.660;2024-02-04T08:33:25;2.73;;;2.27;;
8982;SDS011;20979;59.850;10.660;2024-02-04T08:35:52;2.67;;;2.23;;
8982;SDS011;20979;59.850;10.660;2024-02-04T08:38:20;2.13;;;1.90;;
8982;SDS011;20979;59.850;10.660;2024-02-04T08:40:47;3.40;;;1.80;;
8982;SDS011;20979;59.850;10.660;2024-02-04T08:43:14;1.80;;;1.70;;
8982;SDS011;20979;59.850;10.660;2024-02-04T08:45:43;1.50;;;1.40;;
8982;SDS011;20979;59.850;10.660;2024-02-04T08:48:11;2.03;;;1.50;;
8982;SDS011;20979;59.850;10.660;2024-02-04T08:50:38;1.83;;;1.57;;
8982;SDS011;20979;59.850;10.660;2024-02-04T08:53:06;2.60;;;2.00;;
8982;SDS011;20979;59.850;10.660;2024-02-04T08:55:33;2.57;;;1.90;;
8982;SDS011;20979;59.850;10.660;2024-02-04T08:58:00;2.63;;;1.50;;
8982;SDS011;20979;59.850;10.660;2024-02-04T09:00:28;2.73;;;2.30;;
8982;SDS011;20979;59.850;10.660;2024-02-04T09:02:57;3.77;;;2.37;;
8982;SDS011;20979;59.850;10.660;2024-02-04T09:05:24;2.93;;;2.10;;
8982;SDS011;20979;59.850;10.660;2024-02-04T09:07:52;3.23;;;1.90;;
8982;SDS011;20979;59.850;10.660;2024-02-04T09:10:21;3.03;;;2.43;;
8982;SDS011;20979;59.850;10.660;2024-02-04T09:12:48;2.43;;;2.20;;
8982;SDS011;20979;59.850;10.660;2024-02-04T09:15:16;2.83;;;2.10;;
8982;SDS011;20979;59.850;10.660;2024-02-04T09:17:44;2.73;;;2.00;;
8982;SDS011;20979;59.850;10.660;2024-02-04T09:20:13;3.23;;;2.17;;
8982;SDS011;20979;59.850;10.660;2024-02-04T09:22:41;4.67;;;3.23;;
8982;SDS011;20979;59.850;10.660;2024-02-04T09:25:08;5.73;;;3.93;;
8982;SDS011;20979;59.850;10.660;2024-02-04T09:27:35;4.00;;;3.10;;
8982;SDS011;20979;59.850;10.660;2024-02-04T09:30:03;5.97;;;3.50;;
8982;SDS011;20979;59.850;10.660;2024-02-04T09:32:31;7.07;;;4.90;;
8982;SDS011;20979;59.850;10.660;2024-02-04T09:34:59;10.70;;;6.87;;
8982;SDS011;20979;59.850;10.660;2024-02-04T09:37:28;2.20;;;2.00;;
8982;SDS011;20979;59.850;10.660;2024-02-04T09:39:55;1.67;;;1.43;;
8982;SDS011;20979;59.850;10.660;2024-02-04T09:42:23;2.47;;;0.80;;
8982;SDS011;20979;59.850;10.660;2024-02-04T09:44:53;1.30;;;1.00;;
8982;SDS011;20979;59.850;10.660;2024-02-04T09:47:21;2.17;;;1.53;;
8982;SDS011;20979;59.850;10.660;2024-02-04T09:49:48;1.80;;;1.30;;
8982;SDS011;20979;59.850;10.660;2024-02-04T09:52:18;2.33;;;1.50;;
8982;SDS011;20979;59.850;10.660;2024-02-04T09:54:49;1.90;;;1.43;;
8982;SDS011;20979;59.850;10.660;2024-02-04T09:57:17;1.20;;;1.10;;
8982;SDS011;20979;59.850;10.660;2024-02-04T09:59:45;1.07;;;1.00;;
8982;SDS011;20979;59.850;10.660;2024-02-04T10:02:13;1.33;;;0.80;;
8982;SDS011;20979;59.850;10.660;2024-02-04T10:04:40;1.33;;;1.10;;
8982;SDS011;20979;59.850;10.660;2024-02-04T10:07:08;1.27;;;1.10;;
8982;SDS011;20979;59.850;10.660;2024-02-04T10:09:35;1.43;;;1.17;;
8982;SDS011;20979;59.850;10.660;2024-02-04T10:12:05;5.87;;;2.90;;
8982;SDS011;20979;59.850;10.660;2024-02-04T10:14:33;5.80;;;3.07;;
8982;SDS011;20979;59.850;10.660;2024-02-04T10:17:01;7.50;;;2.50;;
8982;SDS011;20979;59.850;10.660;2024-02-04T10:19:28;4.47;;;2.10;;
8982;SDS011;20979;59.850;10.660;2024-02-04T10:21:59;3.67;;;1.70;;
8982;SDS011;20979;59.850;10.660;2024-02-04T10:24:27;3.20;;;2.03;;
8982;SDS011;20979;59.850;10.660;2024-02-04T10:26:55;3.07;;;2.20;;
8982;SDS011;20979;59.850;10.660;2024-02-04T10:29:24;8.33;;;3.20;;
8982;SDS011;20979;59.850;10.660;2024-02-04T10:31:53;9.37;;;4.70;;
8982;SDS011;20979;59.850;10.660;2024-02-04T10:34:21;12.53;;;5.17;;
8982;SDS011;20979;59.850;10.660;2024-02-04T10:36:48;7.83;;;2.63;;
8982;SDS011;20979;59.850;10.660;2024-02-04T10:39:16;3.37;;;1.80;;
8982;SDS011;20979;59.850;10.660;2024-02-04T10:41:48;1.97;;;1.10;;
8982;SDS011;20979;59.850;10.660;2024-02-04T10:44:18;4.30;;;1.97;;
8982;SDS011;20979;59.850;10.660;2024-02-04T10:46:47;2.80;;;1.53;;
8982;SDS011;20979;59.850;10.660;2024-02-04T10:49:16;3.33;;;1.37;;
8982;SDS011;20979;59.850;10.660;2024-02-04T10:51:44;1.57;;;1.10;;
8982;SDS011;20979;59.850;10.660;2024-02-04T10:54:14;2.17;;;1.07;;
8982;SDS011;20979;59.850;10.660;2024-02-04T10:56:43;3.33;;;1.70;;
8982;SDS011;20979;59.850;10.660;2024-02-04T10:59:11;2.13;;;1.50;;
8982;SDS011;20979;59.850;10.660;2024-02-04T11:01:39;1.43;;;1.33;;
8982;SDS011;20979;59.850;10.660;2024-02-04T11:04:08;1.77;;;1.40;;
8982;SDS011;20979;59.850;10.660;2024-02-04T11:06:36;1.60;;;1.50;;
8982;SDS011;20979;59.850;10.660;2024-02-04T11:09:03;4.20;;;2.30;;
8982;SDS011;20979;59.850;10.660;2024-02-04T11:11:31;2.43;;;1.90;;
8982;SDS011;20979;59.850;10.660;2024-02-04T11:14:00;2.73;;;2.03;;
8982;SDS011;20979;59.850;10.660;2024-02-04T11:16:31;2.03;;;1.90;;
8982;SDS011;20979;59.850;10.660;2024-02-04T11:19:10;3.43;;;2.07;;
8982;SDS011;20979;59.850;10.660;2024-02-04T11:21:45;1.90;;;1.80;;
8982;SDS011;20979;59.850;10.660;2024-02-04T11:24:21;1.57;;;1.30;;
8982;SDS011;20979;59.850;10.660;2024-02-04T11:26:50;1.80;;;1.50;;
8982;SDS011;20979;59.850;10.660;2024-02-04T11:29:18;1.07;;;1.03;;
8982;SDS011;20979;59.850;10.660;2024-02-04T11:31:47;2.40;;;1.70;;
8982;SDS011;20979;59.850;10.660;2024-02-04T11:34:16;3.10;;;1.83;;
8982;SDS011;20979;59.850;10.660;2024-02-04T11:36:43;1.00;;;0.90;;
8982;SDS011;20979;59.850;10.660;2024-02-04T11:39:11;0.83;;;0.77;;
8982;SDS011;20979;59.850;10.660;2024-02-04T11:41:44;0.97;;;0.97;;
8982;SDS011;20979;59.850;10.660;2024-02-04T11:44:12;1.20;;;1.00;;
8982;SDS011;20979;59.850;10.660;2024-02-04T11:46:45;0.50;;;0.50;;
8982;SDS011;20979;59.850;10.660;2024-02-04T11:49:15;0.73;;;0.50;;
8982;SDS011;20979;59.850;10.660;2024-02-04T11:51:46;0.50;;;0.50;;
8982;SDS011;20979;59.850;10.660;2024-02-04T11:54:15;0.60;;;0.60;;
8982;SDS011;20979;59.850;10.660;2024-02-04T11:56:44;0.50;;;0.50;;
8982;SDS011;20979;59.850;10.660;2024-02-04T11:59:18;0.50;;;0.50;;
8982;SDS011;20979;59.850;10.660;2024-02-04T12:01:45;0.73;;;0.63;;
8982;SDS011;20979;59.850;10.660;2024-02-04T12:04:13;0.40;;;0.40;;
8982;SDS011;20979;59.850;10.660;2024-02-04T12:06:42;0.43;;;0.43;;
8982;SDS011;20979;59.850;10.660;2024-02-04T12:09:10;0.53;;;0.47;;
8982;SDS011;20979;59.850;10.660;2024-02-04T12:11:38;0.50;;;0.50;;
8982;SDS011;20979;59.850;10.660;2024-02-04T12:14:06;0.40;;;0.40;;
8982;SDS011;20979;59.850;10.660;2024-02-04T12:16:35;0.43;;;0.43;;
8982;SDS011;20979;59.850;10.660;2024-02-04T12:19:02;0.40;;;0.40;;
8982;SDS011;20979;59.850;10.660;2024-02-04T12:21:30;0.30;;;0.30;;
8982;SDS011;20979;59.850;10.660;2024-02-04T12:23:58;0.70;;;0.70;;
8982;SDS011;20979;59.850;10.660;2024-02-04T12:26:26;1.67;;;0.90;;
8982;SDS011;20979;59.850;10.660;2024-02-04T12:28:53;2.57;;;1.17;;
8982;SDS011;20979;59.850;10.660;2024-02-04T12:31:25;1.50;;;1.30;;
8982;SDS011;20979;59.850;10.660;2024-02-04T12:33:54;1.63;;;1.47;;
8982;SDS011;20979;59.850;10.660;2024-02-04T12:36:23;0.60;;;0.50;;
8982;SDS011;20979;59.850;10.660;2024-02-04T12:38:54;0.70;;;0.70;;
8982;SDS011;20979;59.850;10.660;2024-02-04T12:41:24;2.13;;;1.93;;
8982;SDS011;20979;59.850;10.660;2024-02-04T12:43:52;1.47;;;1.37;;
8982;SDS011;20979;59.850;10.660;2024-02-04T12:46:20;0.70;;;0.70;;
8982;SDS011;20979;59.850;10.660;2024-02-04T12:48:50;1.97;;;1.77;;
8982;SDS011;20979;59.850;10.660;2024-02-04T12:51:25;1.30;;;1.20;;
8982;SDS011;20979;59.850;10.660;2024-02-04T12:54:02;1.27;;;1.10;;
8982;SDS011;20979;59.850;10.660;2024-02-04T12:56:41;0.93;;;0.73;;
8982;SDS011;20979;59.850;10.660;2024-02-04T12:59:08;1.37;;;0.60;;
8982;SDS011;20979;59.850;10.660;2024-02-04T13:01:36;0.40;;;0.40;;
8982;SDS011;20979;59.850;10.660;2024-02-04T13:04:03;0.50;;;0.50;;
8982;SDS011;20979;59.850;10.660;2024-02-04T13:06:31;0.97;;;0.53;;
8982;SDS011;20979;59.850;10.660;2024-02-04T13:09:04;1.97;;;1.87;;
8982;SDS011;20979;59.850;10.660;2024-02-04T13:11:34;0.83;;;0.70;;
8982;SDS011;20979;59.850;10.660;2024-02-04T13:14:03;0.30;;;0.30;;
8982;SDS011;20979;59.850;10.660;2024-02-04T13:16:30;0.20;;;0.20;;
8982;SDS011;20979;59.850;10.660;2024-02-04T13:18:58;0.50;;;0.50;;
8982;SDS011;20979;59.850;10.660;2024-02-04T13:21:25;0.30;;;0.30;;
8982;SDS011;20979;59.850;10.660;2024-02-04T13:23:53;0.73;;;0.40;;
8982;SDS011;20979;59.850;10.660;2024-02-04T13:26:20;0.60;;;0.60;;
8982;SDS011;20979;59.850;10.660;2024-02-04T13:28:48;0.30;;;0.30;;
8982;SDS011;20979;59.850;10.660;2024-02-04T13:31:17;0.30;;;0.30;;
8982;SDS011;20979;59.850;10.660;2024-02-04T13:33:44;0.30;;;0.30;;
8982;SDS011;20979;59.850;10.660;2024-02-04T13:36:11;0.40;;;0.40;;
8982;SDS011;20979;59.850;10.660;2024-02-04T13:38:39;2.20;;;1.80;;
8982;SDS011;20979;59.850;10.660;2024-02-04T13:41:06;0.70;;;0.70;;
8982;SDS011;20979;59.850;10.660;2024-02-04T13:43:34;0.40;;;0.40;;
8982;SDS011;20979;59.850;10.660;2024-02-04T13:46:02;2.00;;;1.90;;
8982;SDS011;20979;59.850;10.660;2024-02-04T13:48:31;0.50;;;0.50;;
8982;SDS011;20979;59.850;10.660;2024-02-04T13:50:58;1.63;;;0.80;;
8982;SDS011;20979;59.850;10.660;2024-02-04T13:53:26;1.33;;;0.90;;
8982;SDS011;20979;59.850;10.660;2024-02-04T13:55:53;0.73;;;0.70;;
8982;SDS011;20979;59.850;10.660;2024-02-04T13:58:20;0.40;;;0.40;;
8982;SDS011;20979;59.850;10.660;2024-02-04T14:00:49;0.40;;;0.40;;
8982;SDS011;20979;59.850;10.660;2024-02-04T14:03:16;0.33;;;0.33;;
8982;SDS011;20979;59.850;10.660;2024-02-04T14:05:45;0.87;;;0.87;;
8982;SDS011;20979;59.850;10.660;2024-02-04T14:08:12;0.50;;;0.50;;
8982;SDS011;20979;59.850;10.660;2024-02-04T14:10:40;0.40;;;0.40;;
8982;SDS011;20979;59.850;10.660;2024-02-04T14:13:10;0.53;;;0.50;;
8982;SDS011;20979;59.850;10.660;2024-02-04T14:15:37;1.83;;;0.77;;
8982;SDS011;20979;59.850;10.660;2024-02-04T14:18:05;0.73;;;0.73;;
8982;SDS011;20979;59.850;10.660;2024-02-04T14:20:32;0.93;;;0.47;;
8982;SDS011;20979;59.850;10.660;2024-02-04T14:23:01;0.30;;;0.30;;
8982;SDS011;20979;59.850;10.660;2024-02-04T14:25:29;0.50;;;0.50;;
8982;SDS011;20979;59.850;10.660;2024-02-04T14:27:56;0.60;;;0.30;;
8982;SDS011;20979;59.850;10.660;2024-02-04T14:30:24;0.53;;;0.40;;
8982;SDS011;20979;59.850;10.660;2024-02-04T14:32:51;0.70;;;0.30;;
8982;SDS011;20979;59.850;10.660;2024-02-04T14:35:19;0.23;;;0.20;;
8982;SDS011;20979;59.850;10.660;2024-02-04T14:37:46;0.30;;;0.30;;
8982;SDS011;20979;59.850;10.660;2024-02-04T14:40:15;0.40;;;0.40;;
8982;SDS011;20979;59.850;10.660;2024-02-04T14:42:43;0.77;;;0.40;;
8982;SDS011;20979;59.850;10.660;2024-02-04T14:45:10;0.40;;;0.40;;
8982;SDS011;20979;59.850;10.660;2024-02-04T14:47:38;0.40;;;0.40;;
8982;SDS011;20979;59.850;10.660;2024-02-04T14:50:06;0.90;;;0.40;;
8982;SDS011;20979;59.850;10.660;2024-02-04T14:52:33;1.60;;;0.67;;